TEJ168 SCTE-SCCI
Flight info
| Callsign | TEJ168 |
|---|---|
| Flight time | 1h 53m |
| Altitude | 35000 |
| Route | GUTIN3A GUTIN UQ803 NEDAX NEDAX3E |
| Aircraft | A320/M-SDE3FGHIRWY/LB1 |
Departure
| Time | 2026-04-17 17:34 |
|---|---|
| Airport | El Tepual International Airport (SCTE) |
Arrival
| Time | 2026-04-17 19:27 |
|---|---|
| Airport | President Carlos Ibáñez International Airport (SCCI) |
| Time | Latitude | Longitude | Altitude | Speed | Heading |
|---|---|---|---|---|---|
| 2026-04-17 16:59 | -41.43330 | -73.09749 | 302 ft | 0 kts | 271° |
| 2026-04-17 17:23 | -41.43330 | -73.09735 | 302 ft | 3 kts | 272° |
| 2026-04-17 17:23 | -41.43331 | -73.09708 | 302 ft | 3 kts | 274° |
| 2026-04-17 17:23 | -41.43333 | -73.09681 | 302 ft | 3 kts | 272° |
| 2026-04-17 17:24 | -41.43333 | -73.09654 | 301 ft | 3 kts | 263° |
| 2026-04-17 17:24 | -41.43329 | -73.09628 | 300 ft | 3 kts | 260° |
| 2026-04-17 17:24 | -41.43326 | -73.09601 | 302 ft | 3 kts | 261° |
| 2026-04-17 17:24 | -41.43322 | -73.09575 | 303 ft | 3 kts | 255° |
| 2026-04-17 17:25 | -41.43320 | -73.09562 | 303 ft | 1 kts | 253° |
| 2026-04-17 17:25 | -41.43319 | -73.09560 | 303 ft | 0 kts | 253° |
| 2026-04-17 17:27 | -41.43321 | -73.09565 | 304 ft | 3 kts | 249° |
| 2026-04-17 17:28 | -41.43386 | -73.09598 | 301 ft | 14 kts | 181° |
| 2026-04-17 17:28 | -41.43494 | -73.09602 | 305 ft | 23 kts | 181° |
| 2026-04-17 17:28 | -41.43613 | -73.09606 | 301 ft | 19 kts | 181° |
| 2026-04-17 17:28 | -41.43794 | -73.09615 | 301 ft | 33 kts | 182° |
| 2026-04-17 17:29 | -41.44042 | -73.09621 | 302 ft | 38 kts | 182° |
| 2026-04-17 17:29 | -41.44183 | -73.09628 | 300 ft | 22 kts | 182° |
| 2026-04-17 17:29 | -41.44383 | -73.09636 | 300 ft | 35 kts | 181° |
| 2026-04-17 17:29 | -41.44662 | -73.09645 | 302 ft | 45 kts | 181° |
| 2026-04-17 17:30 | -41.44946 | -73.09653 | 302 ft | 33 kts | 182° |
| 2026-04-17 17:30 | -41.45067 | -73.09609 | 304 ft | 10 kts | 107° |
| 2026-04-17 17:30 | -41.45067 | -73.09559 | 305 ft | 9 kts | 91° |
| 2026-04-17 17:30 | -41.45068 | -73.09545 | 306 ft | 0 kts | 93° |
| 2026-04-17 17:33 | -41.45068 | -73.09534 | 307 ft | 4 kts | 89° |
| 2026-04-17 17:33 | -41.45060 | -73.09470 | 312 ft | 10 kts | 65° |
| 2026-04-17 17:33 | -41.44959 | -73.09434 | 308 ft | 22 kts | 1° |
| 2026-04-17 17:33 | -41.44747 | -73.09425 | 297 ft | 56 kts | 1° |
| 2026-04-17 17:34 | -41.44360 | -73.09411 | 286 ft | 111 kts | 1° |
| 2026-04-17 17:34 | -41.42967 | -73.09353 | 588 ft | 174 kts | 3° |
| 2026-04-17 17:34 | -41.42135 | -73.09309 | 1107 ft | 184 kts | 5° |
| 2026-04-17 17:34 | -41.40972 | -73.08611 | 1970 ft | 193 kts | 44° |
| 2026-04-17 17:35 | -41.40453 | -73.06900 | 2493 ft | 213 kts | 90° |
| 2026-04-17 17:35 | -41.40978 | -73.05053 | 3075 ft | 222 kts | 133° |
| 2026-04-17 17:35 | -41.42288 | -73.04048 | 3700 ft | 223 kts | 172° |
| 2026-04-17 17:35 | -41.43877 | -73.03894 | 4168 ft | 237 kts | 181° |
| 2026-04-17 17:36 | -41.45591 | -73.03763 | 4698 ft | 256 kts | 174° |
| 2026-04-17 17:36 | -41.47391 | -73.03226 | 5239 ft | 275 kts | 166° |
| 2026-04-17 17:36 | -41.49264 | -73.02426 | 5890 ft | 288 kts | 162° |
| 2026-04-17 17:36 | -41.51171 | -73.01525 | 6719 ft | 293 kts | 161° |
| 2026-04-17 17:37 | -41.53080 | -73.00618 | 7505 ft | 297 kts | 162° |
| 2026-04-17 17:37 | -41.55048 | -72.99707 | 8321 ft | 301 kts | 163° |
| 2026-04-17 17:37 | -41.57047 | -72.98811 | 9141 ft | 305 kts | 165° |
| 2026-04-17 17:37 | -41.59083 | -72.97921 | 9938 ft | 310 kts | 165° |
| 2026-04-17 17:38 | -41.61166 | -72.97053 | 10514 ft | 320 kts | 169° |
| 2026-04-17 17:38 | -41.63397 | -72.96491 | 10911 ft | 333 kts | 178° |
| 2026-04-17 17:38 | -41.65755 | -72.96202 | 11304 ft | 349 kts | 179° |
| 2026-04-17 17:38 | -41.68240 | -72.95899 | 11654 ft | 366 kts | 179° |
| 2026-04-17 17:39 | -41.70838 | -72.95573 | 11961 ft | 383 kts | 179° |
| 2026-04-17 17:39 | -41.73548 | -72.95224 | 12230 ft | 400 kts | 179° |
| 2026-04-17 17:39 | -41.76360 | -72.94852 | 12643 ft | 410 kts | 178° |
| 2026-04-17 17:39 | -41.79222 | -72.94465 | 13278 ft | 415 kts | 179° |
| 2026-04-17 17:40 | -41.82106 | -72.94076 | 13925 ft | 419 kts | 179° |
| 2026-04-17 17:40 | -41.85027 | -72.93688 | 14508 ft | 422 kts | 179° |
| 2026-04-17 17:40 | -41.87924 | -72.93305 | 15099 ft | 425 kts | 179° |
| 2026-04-17 17:40 | -41.90880 | -72.92915 | 15695 ft | 429 kts | 179° |
| 2026-04-17 17:41 | -41.93860 | -72.92523 | 16283 ft | 432 kts | 179° |
| 2026-04-17 17:41 | -41.96863 | -72.92129 | 16847 ft | 435 kts | 179° |
| 2026-04-17 17:41 | -41.99884 | -72.91736 | 17399 ft | 438 kts | 179° |
| 2026-04-17 17:41 | -42.02933 | -72.91338 | 17942 ft | 441 kts | 179° |
| 2026-04-17 17:42 | -42.05999 | -72.90935 | 18436 ft | 444 kts | 180° |
| 2026-04-17 17:42 | -42.09085 | -72.90391 | 18895 ft | 451 kts | 173° |
| 2026-04-17 17:42 | -42.12164 | -72.89505 | 19339 ft | 454 kts | 173° |
| 2026-04-17 17:42 | -42.15261 | -72.88609 | 19774 ft | 456 kts | 173° |
| 2026-04-17 17:43 | -42.18374 | -72.87707 | 20202 ft | 459 kts | 173° |
| 2026-04-17 17:43 | -42.21504 | -72.86802 | 20622 ft | 461 kts | 173° |
| 2026-04-17 17:43 | -42.24645 | -72.85898 | 21019 ft | 463 kts | 173° |
| 2026-04-17 17:43 | -42.27812 | -72.84987 | 21409 ft | 466 kts | 173° |
| 2026-04-17 17:44 | -42.30985 | -72.84072 | 21797 ft | 468 kts | 173° |
| 2026-04-17 17:44 | -42.34175 | -72.83148 | 22177 ft | 470 kts | 173° |
| 2026-04-17 17:44 | -42.37383 | -72.82213 | 22556 ft | 472 kts | 173° |
| 2026-04-17 17:44 | -42.40620 | -72.81496 | 22913 ft | 469 kts | 181° |
| 2026-04-17 17:45 | -42.43857 | -72.81415 | 23266 ft | 463 kts | 189° |
| 2026-04-17 17:45 | -42.47084 | -72.81611 | 23607 ft | 466 kts | 189° |
| 2026-04-17 17:45 | -42.50293 | -72.81800 | 23877 ft | 468 kts | 189° |
| 2026-04-17 17:45 | -42.53552 | -72.81986 | 24149 ft | 470 kts | 189° |
| 2026-04-17 17:46 | -42.56826 | -72.82169 | 24427 ft | 472 kts | 189° |
| 2026-04-17 17:46 | -42.60109 | -72.82349 | 24685 ft | 474 kts | 189° |
| 2026-04-17 17:46 | -42.63413 | -72.82529 | 24936 ft | 476 kts | 189° |
| 2026-04-17 17:46 | -42.66723 | -72.82710 | 25171 ft | 477 kts | 189° |
| 2026-04-17 17:47 | -42.70048 | -72.82896 | 25399 ft | 479 kts | 189° |
| 2026-04-17 17:47 | -42.73375 | -72.83084 | 25686 ft | 479 kts | 189° |
| 2026-04-17 17:47 | -42.76705 | -72.83267 | 26031 ft | 478 kts | 189° |
| 2026-04-17 17:47 | -42.80022 | -72.83452 | 26350 ft | 477 kts | 189° |
| 2026-04-17 17:48 | -42.83342 | -72.83637 | 26693 ft | 477 kts | 189° |
| 2026-04-17 17:48 | -42.86657 | -72.83823 | 27024 ft | 476 kts | 189° |
| 2026-04-17 17:48 | -42.89966 | -72.84012 | 27361 ft | 475 kts | 189° |
| 2026-04-17 17:48 | -42.93271 | -72.84200 | 27695 ft | 475 kts | 189° |
| 2026-04-17 17:49 | -42.96570 | -72.84390 | 28038 ft | 474 kts | 189° |
| 2026-04-17 17:49 | -42.99871 | -72.84580 | 28384 ft | 474 kts | 189° |
| 2026-04-17 17:49 | -43.03164 | -72.84767 | 28734 ft | 473 kts | 189° |
| 2026-04-17 17:49 | -43.06453 | -72.84955 | 29112 ft | 473 kts | 189° |
| 2026-04-17 17:50 | -43.09732 | -72.85141 | 29491 ft | 472 kts | 189° |
| 2026-04-17 17:50 | -43.13013 | -72.85324 | 29876 ft | 471 kts | 189° |
| 2026-04-17 17:50 | -43.16288 | -72.85507 | 30219 ft | 470 kts | 189° |
| 2026-04-17 17:50 | -43.19554 | -72.85690 | 30544 ft | 470 kts | 190° |
| 2026-04-17 17:51 | -43.22774 | -72.85873 | 30870 ft | 469 kts | 190° |
| 2026-04-17 17:51 | -43.26029 | -72.86066 | 31192 ft | 468 kts | 190° |
| 2026-04-17 17:51 | -43.29278 | -72.86259 | 31494 ft | 467 kts | 190° |
| 2026-04-17 17:51 | -43.32529 | -72.86450 | 31794 ft | 466 kts | 190° |
| 2026-04-17 17:52 | -43.35769 | -72.86637 | 32072 ft | 465 kts | 190° |
| 2026-04-17 17:52 | -43.39004 | -72.86822 | 32331 ft | 465 kts | 191° |
| 2026-04-17 17:52 | -43.42235 | -72.87005 | 32636 ft | 465 kts | 191° |
| 2026-04-17 17:52 | -43.45467 | -72.87186 | 32937 ft | 464 kts | 191° |
| 2026-04-17 17:53 | -43.48691 | -72.87367 | 33243 ft | 464 kts | 191° |
| 2026-04-17 17:53 | -43.51915 | -72.87549 | 33550 ft | 463 kts | 191° |
| 2026-04-17 17:53 | -43.55131 | -72.87737 | 33863 ft | 462 kts | 191° |
| 2026-04-17 17:53 | -43.58341 | -72.87927 | 34132 ft | 461 kts | 191° |
| 2026-04-17 17:54 | -43.61543 | -72.88115 | 34337 ft | 462 kts | 191° |
| 2026-04-17 17:54 | -43.64759 | -72.88307 | 34575 ft | 462 kts | 191° |
| 2026-04-17 17:54 | -43.67972 | -72.88496 | 34801 ft | 462 kts | 191° |
| 2026-04-17 17:54 | -43.71185 | -72.88681 | 34930 ft | 462 kts | 191° |
| 2026-04-17 17:55 | -43.74410 | -72.88868 | 34953 ft | 465 kts | 191° |
| 2026-04-17 17:55 | -43.80930 | -72.89250 | 34948 ft | 471 kts | 191° |
| 2026-04-17 17:56 | -43.87491 | -72.89627 | 34950 ft | 472 kts | 191° |
| 2026-04-17 17:56 | -43.94042 | -72.90006 | 34949 ft | 472 kts | 191° |
| 2026-04-17 17:57 | -44.00612 | -72.90393 | 34945 ft | 473 kts | 191° |
| 2026-04-17 17:57 | -44.07189 | -72.90778 | 34950 ft | 474 kts | 191° |
| 2026-04-17 17:58 | -44.13775 | -72.91162 | 34946 ft | 474 kts | 191° |
| 2026-04-17 17:58 | -44.20362 | -72.91554 | 34943 ft | 474 kts | 191° |
| 2026-04-17 17:59 | -44.26918 | -72.91940 | 34943 ft | 475 kts | 191° |
| 2026-04-17 17:59 | -44.33528 | -72.92335 | 34948 ft | 476 kts | 191° |
| 2026-04-17 18:00 | -44.40153 | -72.92722 | 34928 ft | 476 kts | 191° |
| 2026-04-17 18:00 | -44.46771 | -72.93119 | 34920 ft | 476 kts | 191° |
| 2026-04-17 18:01 | -44.53410 | -72.93508 | 34918 ft | 478 kts | 191° |
| 2026-04-17 18:01 | -44.60054 | -72.93909 | 34919 ft | 478 kts | 191° |
| 2026-04-17 18:02 | -44.66708 | -72.94321 | 34922 ft | 479 kts | 190° |
| 2026-04-17 18:02 | -44.73371 | -72.94721 | 34927 ft | 479 kts | 190° |
| 2026-04-17 18:03 | -44.80041 | -72.95104 | 34920 ft | 480 kts | 190° |
| 2026-04-17 18:03 | -44.86716 | -72.95498 | 34915 ft | 480 kts | 190° |
| 2026-04-17 18:04 | -44.93388 | -72.95910 | 34914 ft | 480 kts | 190° |
| 2026-04-17 18:04 | -45.00074 | -72.96317 | 34904 ft | 481 kts | 190° |
| 2026-04-17 18:05 | -45.06757 | -72.96728 | 34894 ft | 481 kts | 191° |
| 2026-04-17 18:05 | -45.13406 | -72.97125 | 34895 ft | 482 kts | 190° |
| 2026-04-17 18:06 | -45.20110 | -72.97532 | 34884 ft | 482 kts | 190° |
| 2026-04-17 18:06 | -45.26816 | -72.97949 | 34883 ft | 482 kts | 190° |
| 2026-04-17 18:07 | -45.33512 | -72.98357 | 34882 ft | 481 kts | 190° |
| 2026-04-17 18:07 | -45.40225 | -72.98770 | 34871 ft | 483 kts | 190° |
| 2026-04-17 18:08 | -45.46938 | -72.99179 | 34867 ft | 483 kts | 190° |
| 2026-04-17 18:08 | -45.53646 | -72.99589 | 34870 ft | 482 kts | 190° |
| 2026-04-17 18:09 | -45.60347 | -73.00007 | 34865 ft | 482 kts | 190° |
| 2026-04-17 18:09 | -45.67050 | -73.00429 | 34862 ft | 483 kts | 190° |
| 2026-04-17 18:10 | -45.73775 | -73.00854 | 34864 ft | 484 kts | 190° |
| 2026-04-17 18:10 | -45.80508 | -73.01269 | 34866 ft | 484 kts | 190° |
| 2026-04-17 18:11 | -45.87252 | -73.01686 | 34877 ft | 484 kts | 190° |
| 2026-04-17 18:11 | -45.93935 | -73.02103 | 34870 ft | 484 kts | 189° |
| 2026-04-17 18:12 | -46.00664 | -73.02525 | 34855 ft | 484 kts | 189° |
| 2026-04-17 18:12 | -46.07409 | -73.02958 | 34846 ft | 485 kts | 189° |
| 2026-04-17 18:13 | -46.14157 | -73.03386 | 34847 ft | 485 kts | 189° |
| 2026-04-17 18:13 | -46.20907 | -73.03802 | 34846 ft | 486 kts | 189° |
| 2026-04-17 18:14 | -46.27671 | -73.04226 | 34840 ft | 487 kts | 189° |
| 2026-04-17 18:14 | -46.34451 | -73.04654 | 34834 ft | 488 kts | 189° |
| 2026-04-17 18:15 | -46.41227 | -73.05089 | 34824 ft | 488 kts | 189° |
| 2026-04-17 18:15 | -46.48016 | -73.05530 | 34815 ft | 488 kts | 189° |
| 2026-04-17 18:16 | -46.54800 | -73.05960 | 34808 ft | 488 kts | 189° |
| 2026-04-17 18:16 | -46.61548 | -73.06397 | 34793 ft | 488 kts | 189° |
| 2026-04-17 18:17 | -46.68338 | -73.06840 | 34798 ft | 489 kts | 189° |
| 2026-04-17 18:17 | -46.78544 | -73.07493 | 34794 ft | 489 kts | 189° |
| 2026-04-17 18:18 | -46.85342 | -73.07932 | 34781 ft | 489 kts | 189° |
| 2026-04-17 18:18 | -46.92150 | -73.08381 | 34779 ft | 490 kts | 189° |
| 2026-04-17 18:19 | -46.98968 | -73.08828 | 34785 ft | 490 kts | 189° |
| 2026-04-17 18:19 | -47.05737 | -73.09674 | 34782 ft | 486 kts | 194° |
| 2026-04-17 18:20 | -47.12423 | -73.11070 | 34779 ft | 485 kts | 195° |
| 2026-04-17 18:20 | -47.19103 | -73.12524 | 34781 ft | 485 kts | 195° |
| 2026-04-17 18:21 | -47.25820 | -73.13844 | 34765 ft | 487 kts | 194° |
| 2026-04-17 18:21 | -47.31414 | -73.14876 | 34761 ft | 488 kts | 193° |
| 2026-04-17 18:22 | -47.38164 | -73.16118 | 34757 ft | 488 kts | 194° |
| 2026-04-17 18:22 | -47.44899 | -73.17413 | 34761 ft | 488 kts | 194° |
| 2026-04-17 18:23 | -47.51634 | -73.18729 | 34751 ft | 489 kts | 194° |
| 2026-04-17 18:23 | -47.58382 | -73.20038 | 34752 ft | 489 kts | 194° |
| 2026-04-17 18:24 | -47.65142 | -73.21332 | 34761 ft | 490 kts | 194° |
| 2026-04-17 18:24 | -47.71903 | -73.22625 | 34755 ft | 490 kts | 194° |
| 2026-04-17 18:25 | -47.78660 | -73.23943 | 34753 ft | 489 kts | 194° |
| 2026-04-17 18:25 | -47.85415 | -73.25272 | 34752 ft | 490 kts | 194° |
| 2026-04-17 18:26 | -47.92174 | -73.26593 | 34756 ft | 490 kts | 194° |
| 2026-04-17 18:26 | -47.98949 | -73.27917 | 34765 ft | 491 kts | 194° |
| 2026-04-17 18:27 | -48.05708 | -73.29238 | 34761 ft | 490 kts | 194° |
| 2026-04-17 18:27 | -48.12481 | -73.30567 | 34753 ft | 491 kts | 194° |
| 2026-04-17 18:28 | -48.19221 | -73.31902 | 34750 ft | 492 kts | 194° |
| 2026-04-17 18:28 | -48.26012 | -73.33241 | 34751 ft | 492 kts | 194° |
| 2026-04-17 18:29 | -48.32811 | -73.34579 | 34752 ft | 493 kts | 195° |
| 2026-04-17 18:29 | -48.39611 | -73.35927 | 34748 ft | 493 kts | 195° |
| 2026-04-17 18:30 | -48.46408 | -73.37285 | 34744 ft | 493 kts | 195° |
| 2026-04-17 18:30 | -48.53209 | -73.38647 | 34737 ft | 493 kts | 195° |
| 2026-04-17 18:31 | -48.60012 | -73.40012 | 34729 ft | 494 kts | 195° |
| 2026-04-17 18:31 | -48.66819 | -73.41379 | 34734 ft | 494 kts | 195° |
| 2026-04-17 18:32 | -48.73628 | -73.42742 | 34726 ft | 493 kts | 195° |
| 2026-04-17 18:32 | -48.80437 | -73.44124 | 34717 ft | 494 kts | 195° |
| 2026-04-17 18:33 | -48.87246 | -73.45514 | 34721 ft | 494 kts | 195° |
| 2026-04-17 18:33 | -48.94058 | -73.46891 | 34722 ft | 494 kts | 195° |
| 2026-04-17 18:34 | -49.00873 | -73.48260 | 34712 ft | 494 kts | 195° |
| 2026-04-17 18:34 | -49.07696 | -73.49646 | 34699 ft | 495 kts | 195° |
| 2026-04-17 18:35 | -49.14524 | -73.51039 | 34702 ft | 494 kts | 195° |
| 2026-04-17 18:35 | -49.21336 | -73.52433 | 34692 ft | 494 kts | 195° |
| 2026-04-17 18:36 | -49.28148 | -73.53855 | 34686 ft | 494 kts | 196° |
| 2026-04-17 18:36 | -49.34913 | -73.55262 | 34691 ft | 494 kts | 195° |
| 2026-04-17 18:37 | -49.41725 | -73.56666 | 34679 ft | 494 kts | 196° |
| 2026-04-17 18:37 | -49.48538 | -73.58072 | 34671 ft | 494 kts | 196° |
| 2026-04-17 18:38 | -49.55345 | -73.59483 | 34666 ft | 493 kts | 196° |
| 2026-04-17 18:38 | -49.62154 | -73.60904 | 34655 ft | 494 kts | 196° |
| 2026-04-17 18:39 | -49.68963 | -73.62337 | 34647 ft | 494 kts | 196° |
| 2026-04-17 18:39 | -49.75784 | -73.63763 | 34645 ft | 495 kts | 196° |
| 2026-04-17 18:40 | -49.82601 | -73.65202 | 34640 ft | 494 kts | 196° |
| 2026-04-17 18:40 | -49.89419 | -73.66642 | 34635 ft | 494 kts | 196° |
| 2026-04-17 18:41 | -49.96252 | -73.68081 | 34628 ft | 494 kts | 196° |
| 2026-04-17 18:41 | -50.03070 | -73.69531 | 34617 ft | 495 kts | 196° |
| 2026-04-17 18:42 | -50.09885 | -73.70992 | 34621 ft | 494 kts | 196° |
| 2026-04-17 18:42 | -50.16707 | -73.72445 | 34620 ft | 494 kts | 196° |
| 2026-04-17 18:43 | -50.23478 | -73.73883 | 34619 ft | 494 kts | 196° |
| 2026-04-17 18:43 | -50.30299 | -73.75323 | 34624 ft | 496 kts | 193° |
| 2026-04-17 18:44 | -50.33793 | -73.75406 | 34608 ft | 508 kts | 182° |
| 2026-04-17 18:44 | -50.37315 | -73.74526 | 34591 ft | 518 kts | 171° |
| 2026-04-17 18:44 | -50.40748 | -73.72661 | 34590 ft | 527 kts | 160° |
| 2026-04-17 18:44 | -50.43996 | -73.69889 | 34588 ft | 533 kts | 153° |
| 2026-04-17 18:45 | -50.50350 | -73.63938 | 34459 ft | 530 kts | 153° |
| 2026-04-17 18:45 | -50.53510 | -73.60978 | 33920 ft | 529 kts | 153° |
| 2026-04-17 18:45 | -50.56672 | -73.58016 | 33055 ft | 531 kts | 153° |
| 2026-04-17 18:46 | -50.59854 | -73.55032 | 32055 ft | 534 kts | 154° |
| 2026-04-17 18:46 | -50.63051 | -73.52028 | 31110 ft | 536 kts | 154° |
| 2026-04-17 18:46 | -50.66255 | -73.49010 | 30209 ft | 537 kts | 154° |
| 2026-04-17 18:46 | -50.69473 | -73.45975 | 29800 ft | 540 kts | 154° |
| 2026-04-17 18:47 | -50.72703 | -73.42926 | 29548 ft | 542 kts | 154° |
| 2026-04-17 18:47 | -50.75940 | -73.39862 | 29583 ft | 543 kts | 154° |
| 2026-04-17 18:47 | -50.82411 | -73.33710 | 29573 ft | 542 kts | 154° |
| 2026-04-17 18:48 | -50.85593 | -73.30675 | 29364 ft | 540 kts | 154° |
| 2026-04-17 18:48 | -50.88801 | -73.27610 | 28538 ft | 538 kts | 154° |
| 2026-04-17 18:48 | -50.92000 | -73.24554 | 27482 ft | 536 kts | 153° |
| 2026-04-17 18:48 | -50.95189 | -73.21501 | 26421 ft | 533 kts | 153° |
| 2026-04-17 18:49 | -50.98367 | -73.18454 | 25366 ft | 531 kts | 153° |
| 2026-04-17 18:49 | -51.01517 | -73.15432 | 24305 ft | 528 kts | 153° |
| 2026-04-17 18:49 | -51.04658 | -73.12413 | 23223 ft | 526 kts | 152° |
| 2026-04-17 18:49 | -51.07766 | -73.09417 | 22323 ft | 517 kts | 152° |
| 2026-04-17 18:50 | -51.10813 | -73.06473 | 21515 ft | 508 kts | 152° |
| 2026-04-17 18:50 | -51.13812 | -73.03577 | 20716 ft | 501 kts | 152° |
| 2026-04-17 18:50 | -51.16774 | -73.00715 | 19954 ft | 494 kts | 152° |
| 2026-04-17 18:50 | -51.19692 | -72.97895 | 19619 ft | 492 kts | 152° |
| 2026-04-17 18:51 | -51.22626 | -72.95057 | 19510 ft | 491 kts | 151° |
| 2026-04-17 18:51 | -51.25546 | -72.92222 | 19543 ft | 492 kts | 151° |
| 2026-04-17 18:51 | -51.28378 | -72.89461 | 19538 ft | 492 kts | 151° |
| 2026-04-17 18:51 | -51.31383 | -72.86521 | 19538 ft | 492 kts | 151° |
| 2026-04-17 18:52 | -51.34294 | -72.83660 | 19538 ft | 492 kts | 151° |
| 2026-04-17 18:52 | -51.37168 | -72.80825 | 19537 ft | 491 kts | 150° |
| 2026-04-17 18:52 | -51.40071 | -72.77959 | 19537 ft | 492 kts | 150° |
| 2026-04-17 18:52 | -51.42992 | -72.75076 | 19536 ft | 491 kts | 150° |
| 2026-04-17 18:53 | -51.45899 | -72.72212 | 19539 ft | 490 kts | 150° |
| 2026-04-17 18:53 | -51.48810 | -72.69348 | 19535 ft | 489 kts | 151° |
| 2026-04-17 18:53 | -51.51711 | -72.66488 | 19534 ft | 490 kts | 150° |
| 2026-04-17 18:53 | -51.54614 | -72.63618 | 19537 ft | 489 kts | 150° |
| 2026-04-17 18:54 | -51.57514 | -72.60747 | 19536 ft | 489 kts | 150° |
| 2026-04-17 18:54 | -51.60407 | -72.57878 | 19534 ft | 489 kts | 150° |
| 2026-04-17 18:54 | -51.63294 | -72.55009 | 19382 ft | 486 kts | 150° |
| 2026-04-17 18:54 | -51.66150 | -72.52158 | 18744 ft | 480 kts | 150° |
| 2026-04-17 18:55 | -51.68973 | -72.49331 | 18027 ft | 475 kts | 150° |
| 2026-04-17 18:55 | -51.71763 | -72.46536 | 17362 ft | 468 kts | 150° |
| 2026-04-17 18:55 | -51.74423 | -72.43685 | 17199 ft | 451 kts | 145° |
| 2026-04-17 18:55 | -51.76887 | -72.40696 | 17056 ft | 435 kts | 145° |
| 2026-04-17 18:56 | -51.79264 | -72.37807 | 16915 ft | 421 kts | 145° |
| 2026-04-17 18:56 | -51.81561 | -72.35009 | 16780 ft | 407 kts | 145° |
| 2026-04-17 18:56 | -51.83784 | -72.32299 | 16579 ft | 395 kts | 145° |
| 2026-04-17 18:56 | -51.85973 | -72.29629 | 16075 ft | 393 kts | 145° |
| 2026-04-17 18:57 | -51.88156 | -72.26968 | 15594 ft | 391 kts | 145° |
| 2026-04-17 18:57 | -51.90326 | -72.24323 | 15137 ft | 389 kts | 145° |
| 2026-04-17 18:57 | -51.92479 | -72.21699 | 14690 ft | 386 kts | 145° |
| 2026-04-17 18:57 | -51.94613 | -72.19092 | 14247 ft | 384 kts | 145° |
| 2026-04-17 18:58 | -51.96740 | -72.16486 | 13825 ft | 382 kts | 145° |
| 2026-04-17 18:58 | -51.98852 | -72.13889 | 13388 ft | 380 kts | 145° |
| 2026-04-17 18:58 | -52.00948 | -72.11310 | 12936 ft | 377 kts | 145° |
| 2026-04-17 18:58 | -52.03031 | -72.08742 | 12475 ft | 374 kts | 145° |
| 2026-04-17 18:59 | -52.05105 | -72.06177 | 11744 ft | 378 kts | 145° |
| 2026-04-17 18:59 | -52.07217 | -72.03565 | 10919 ft | 385 kts | 145° |
| 2026-04-17 18:59 | -52.09337 | -72.00886 | 10346 ft | 385 kts | 143° |
| 2026-04-17 18:59 | -52.11359 | -71.98151 | 9852 ft | 381 kts | 141° |
| 2026-04-17 19:00 | -52.13351 | -71.95336 | 9316 ft | 378 kts | 140° |
| 2026-04-17 19:00 | -52.15308 | -71.92509 | 8715 ft | 374 kts | 140° |
| 2026-04-17 19:00 | -52.17244 | -71.89703 | 8140 ft | 370 kts | 140° |
| 2026-04-17 19:00 | -52.19163 | -71.86935 | 7566 ft | 366 kts | 140° |
| 2026-04-17 19:01 | -52.21066 | -71.84210 | 6971 ft | 363 kts | 140° |
| 2026-04-17 19:01 | -52.22962 | -71.81516 | 6399 ft | 360 kts | 140° |
| 2026-04-17 19:01 | -52.24845 | -71.78852 | 6067 ft | 359 kts | 140° |
| 2026-04-17 19:01 | -52.26733 | -71.76177 | 6001 ft | 359 kts | 140° |
| 2026-04-17 19:02 | -52.28622 | -71.73495 | 6006 ft | 360 kts | 140° |
| 2026-04-17 19:02 | -52.30507 | -71.70815 | 6012 ft | 359 kts | 140° |
| 2026-04-17 19:02 | -52.32395 | -71.68130 | 6014 ft | 360 kts | 140° |
| 2026-04-17 19:02 | -52.34281 | -71.65442 | 6011 ft | 359 kts | 140° |
| 2026-04-17 19:03 | -52.36160 | -71.62751 | 6007 ft | 359 kts | 140° |
| 2026-04-17 19:03 | -52.38040 | -71.60056 | 6009 ft | 360 kts | 140° |
| 2026-04-17 19:03 | -52.39918 | -71.57365 | 6008 ft | 359 kts | 140° |
| 2026-04-17 19:03 | -52.41798 | -71.54674 | 6008 ft | 359 kts | 139° |
| 2026-04-17 19:04 | -52.43676 | -71.51983 | 6007 ft | 358 kts | 140° |
| 2026-04-17 19:04 | -52.45530 | -71.49328 | 6007 ft | 358 kts | 140° |
| 2026-04-17 19:04 | -52.47432 | -71.46597 | 6006 ft | 358 kts | 140° |
| 2026-04-17 19:04 | -52.49278 | -71.43938 | 6009 ft | 358 kts | 140° |
| 2026-04-17 19:05 | -52.51147 | -71.41241 | 6008 ft | 358 kts | 140° |
| 2026-04-17 19:05 | -52.53013 | -71.38545 | 6009 ft | 357 kts | 140° |
| 2026-04-17 19:05 | -52.54877 | -71.35851 | 6005 ft | 357 kts | 140° |
| 2026-04-17 19:05 | -52.56739 | -71.33155 | 6003 ft | 356 kts | 140° |
| 2026-04-17 19:06 | -52.58598 | -71.30462 | 6002 ft | 356 kts | 140° |
| 2026-04-17 19:06 | -52.60458 | -71.27763 | 6002 ft | 356 kts | 140° |
| 2026-04-17 19:06 | -52.62312 | -71.25069 | 6005 ft | 356 kts | 139° |
| 2026-04-17 19:06 | -52.64166 | -71.22369 | 6001 ft | 356 kts | 140° |
| 2026-04-17 19:07 | -52.66019 | -71.19673 | 5803 ft | 354 kts | 139° |
| 2026-04-17 19:07 | -52.67852 | -71.17002 | 5235 ft | 350 kts | 139° |
| 2026-04-17 19:07 | -52.69665 | -71.14358 | 4665 ft | 346 kts | 139° |
| 2026-04-17 19:07 | -52.71456 | -71.11741 | 4141 ft | 341 kts | 139° |
| 2026-04-17 19:08 | -52.72632 | -71.10018 | 4007 ft | 342 kts | 138° |
| 2026-04-17 19:08 | -52.75002 | -71.06535 | 4001 ft | 341 kts | 139° |
| 2026-04-17 19:08 | -52.76778 | -71.03931 | 4001 ft | 341 kts | 139° |
| 2026-04-17 19:08 | -52.77957 | -71.02202 | 4000 ft | 341 kts | 139° |
| 2026-04-17 19:09 | -52.79732 | -70.99597 | 3994 ft | 342 kts | 138° |
| 2026-04-17 19:09 | -52.81508 | -70.96983 | 3998 ft | 342 kts | 138° |
| 2026-04-17 19:09 | -52.83280 | -70.94373 | 3996 ft | 341 kts | 138° |
| 2026-04-17 19:09 | -52.85191 | -70.92037 | 3994 ft | 341 kts | 152° |
| 2026-04-17 19:10 | -52.87281 | -70.90170 | 4002 ft | 341 kts | 153° |
| 2026-04-17 19:10 | -52.89370 | -70.88314 | 3999 ft | 341 kts | 153° |
| 2026-04-17 19:10 | -52.91437 | -70.86471 | 3994 ft | 328 kts | 153° |
| 2026-04-17 19:10 | -52.93389 | -70.84727 | 3908 ft | 310 kts | 153° |
| 2026-04-17 19:11 | -52.95241 | -70.83072 | 3777 ft | 295 kts | 153° |
| 2026-04-17 19:11 | -52.97003 | -70.81498 | 3645 ft | 280 kts | 153° |
| 2026-04-17 19:11 | -52.98652 | -70.80022 | 3518 ft | 266 kts | 152° |
| 2026-04-17 19:11 | -53.00243 | -70.78596 | 3390 ft | 253 kts | 152° |
| 2026-04-17 19:12 | -53.01760 | -70.77236 | 3196 ft | 245 kts | 152° |
| 2026-04-17 19:12 | -53.03255 | -70.75895 | 2869 ft | 243 kts | 152° |
| 2026-04-17 19:12 | -53.04734 | -70.74565 | 2575 ft | 240 kts | 152° |
| 2026-04-17 19:12 | -53.06199 | -70.73246 | 2492 ft | 241 kts | 152° |
| 2026-04-17 19:13 | -53.07680 | -70.71910 | 2493 ft | 243 kts | 152° |
| 2026-04-17 19:13 | -53.09165 | -70.70572 | 2497 ft | 242 kts | 152° |
| 2026-04-17 19:13 | -53.10643 | -70.69239 | 2496 ft | 242 kts | 152° |
| 2026-04-17 19:13 | -53.12124 | -70.67904 | 2495 ft | 243 kts | 152° |
| 2026-04-17 19:14 | -53.13612 | -70.66560 | 2500 ft | 243 kts | 152° |
| 2026-04-17 19:14 | -53.15129 | -70.65387 | 2489 ft | 239 kts | 171° |
| 2026-04-17 19:14 | -53.16712 | -70.65680 | 2496 ft | 227 kts | 215° |
| 2026-04-17 19:14 | -53.17721 | -70.67502 | 2496 ft | 209 kts | 259° |
| 2026-04-17 19:15 | -53.17677 | -70.69763 | 2499 ft | 194 kts | 302° |
| 2026-04-17 19:15 | -53.16688 | -70.71150 | 2501 ft | 190 kts | 342° |
| 2026-04-17 19:15 | -53.15483 | -70.71600 | 2498 ft | 168 kts | 346° |
| 2026-04-17 19:15 | -53.14335 | -70.71980 | 2513 ft | 162 kts | 346° |
| 2026-04-17 19:16 | -53.13320 | -70.72297 | 2513 ft | 136 kts | 347° |
| 2026-04-17 19:16 | -53.12454 | -70.72549 | 2506 ft | 123 kts | 347° |
| 2026-04-17 19:16 | -53.11598 | -70.72793 | 2378 ft | 124 kts | 347° |
| 2026-04-17 19:16 | -53.10737 | -70.73037 | 2231 ft | 126 kts | 347° |
| 2026-04-17 19:17 | -53.09872 | -70.73281 | 2111 ft | 123 kts | 347° |
| 2026-04-17 19:17 | -53.09044 | -70.73567 | 1988 ft | 121 kts | 335° |
| 2026-04-17 19:17 | -53.08412 | -70.74471 | 1841 ft | 123 kts | 309° |
| 2026-04-17 19:17 | -53.07816 | -70.75469 | 1715 ft | 121 kts | 321° |
| 2026-04-17 19:18 | -53.07170 | -70.76363 | 1547 ft | 121 kts | 322° |
| 2026-04-17 19:18 | -53.06519 | -70.77264 | 1402 ft | 122 kts | 322° |
| 2026-04-17 19:18 | -53.05870 | -70.78171 | 1249 ft | 121 kts | 321° |
| 2026-04-17 19:18 | -53.05235 | -70.79061 | 1084 ft | 122 kts | 322° |
| 2026-04-17 19:19 | -53.04591 | -70.79968 | 934 ft | 122 kts | 320° |
| 2026-04-17 19:19 | -53.03947 | -70.80881 | 776 ft | 122 kts | 320° |
| 2026-04-17 19:19 | -53.03285 | -70.81821 | 626 ft | 127 kts | 319° |
| 2026-04-17 19:19 | -53.02614 | -70.82781 | 458 ft | 129 kts | 319° |
| 2026-04-17 19:20 | -53.01938 | -70.83750 | 297 ft | 126 kts | 318° |
| 2026-04-17 19:20 | -53.01282 | -70.84694 | 162 ft | 122 kts | 319° |
| 2026-04-17 19:20 | -53.00627 | -70.85620 | 151 ft | 120 kts | 319° |
| 2026-04-17 19:20 | -53.00172 | -70.86272 | 151 ft | 55 kts | 320° |
| 2026-04-17 19:21 | -52.99871 | -70.86690 | 150 ft | 80 kts | 318° |
| 2026-04-17 19:21 | -52.99276 | -70.87553 | 299 ft | 138 kts | 319° |
| 2026-04-17 19:21 | -52.98419 | -70.88714 | 575 ft | 185 kts | 322° |
| 2026-04-17 19:21 | -52.97238 | -70.89795 | 732 ft | 199 kts | 338° |
| 2026-04-17 19:22 | -52.95846 | -70.90330 | 792 ft | 215 kts | 343° |
| 2026-04-17 19:22 | -52.94772 | -70.91792 | 956 ft | 206 kts | 288° |
| 2026-04-17 19:22 | -52.95228 | -70.93846 | 1102 ft | 216 kts | 196° |
| 2026-04-17 19:22 | -52.96591 | -70.93336 | 1130 ft | 208 kts | 116° |
| 2026-04-17 19:23 | -52.97406 | -70.91313 | 811 ft | 217 kts | 118° |
| 2026-04-17 19:23 | -52.99146 | -70.87754 | 321 ft | 179 kts | 135° |
| 2026-04-17 19:23 | -53.00018 | -70.86467 | 159 ft | 151 kts | 135° |
| 2026-04-17 19:24 | -53.00615 | -70.85586 | 151 ft | 73 kts | 140° |
| 2026-04-17 19:24 | -53.00895 | -70.85191 | 149 ft | 59 kts | 140° |
| 2026-04-17 19:24 | -53.01448 | -70.84415 | 153 ft | 145 kts | 141° |
| 2026-04-17 19:24 | -53.02363 | -70.83245 | 421 ft | 186 kts | 146° |
| 2026-04-17 19:25 | -53.03541 | -70.82040 | 951 ft | 205 kts | 151° |
| 2026-04-17 19:25 | -53.04730 | -70.80949 | 1440 ft | 189 kts | 150° |
| 2026-04-17 19:25 | -53.05690 | -70.79613 | 1566 ft | 183 kts | 96° |
| 2026-04-17 19:25 | -53.05457 | -70.77681 | 1716 ft | 176 kts | 13° |
| 2026-04-17 19:26 | -53.04456 | -70.78200 | 1322 ft | 184 kts | 302° |
| 2026-04-17 19:26 | -53.03784 | -70.80309 | 1052 ft | 211 kts | 298° |
| 2026-04-17 19:26 | -53.02996 | -70.82153 | 568 ft | 179 kts | 320° |
| 2026-04-17 19:26 | -53.02160 | -70.83392 | 353 ft | 149 kts | 319° |
| 2026-04-17 19:27 | -53.01437 | -70.84430 | 190 ft | 126 kts | 319° |
| 2026-04-17 19:27 | -53.00830 | -70.85340 | 150 ft | 109 kts | 317° |
| 2026-04-17 19:27 | -53.00379 | -70.85984 | 149 ft | 38 kts | 321° |
| 2026-04-17 19:27 | -53.00270 | -70.86068 | 150 ft | 8 kts | 32° |
| 2026-04-17 19:28 | -53.00272 | -70.85916 | 149 ft | 17 kts | 79° |
| 2026-04-17 19:28 | -53.00265 | -70.85676 | 149 ft | 28 kts | 87° |
| 2026-04-17 19:28 | -53.00257 | -70.85291 | 149 ft | 34 kts | 90° |
| 2026-04-17 19:28 | -53.00252 | -70.84878 | 149 ft | 34 kts | 92° |
| 2026-04-17 19:29 | -53.00338 | -70.84669 | 149 ft | 4 kts | 150° |
| 2026-04-17 19:29 | -53.00339 | -70.84668 | 149 ft | 0 kts | 150° |
| 2026-04-17 19:30 | -53.00380 | -70.84607 | 149 ft | 4 kts | 114° |
| 2026-04-17 19:30 | -53.00383 | -70.84490 | 147 ft | 9 kts | 89° |
| 2026-04-17 19:30 | -53.00406 | -70.84448 | 147 ft | 3 kts | 169° |
| 2026-04-17 19:30 | -53.00433 | -70.84450 | 147 ft | 2 kts | 179° |
| 2026-04-17 19:31 | -53.00449 | -70.84450 | 147 ft | 0 kts | 179° |